Terminal Aerodrome Forecast
Issued by NWS

Home | Current Version | Previous Version | Text Only | Print | Product List | Glossary On
Versions: 1 2 3 4 5 6 7 8 9 10 11 12 13 14 15 16
000
FTUS41 KPBZ 251720
TAFDUJ
TAF
KDUJ 251720Z 2518/2618 11010G18KT P6SM BKN050
     FM252000 10009KT P6SM BKN025
     FM260100 09008KT P6SM BKN015
     FM260600 09004KT 6SM BR BKN008
     FM261000 09003KT 2SM BR BKN008
     FM261300 17003KT P6SM SCT008=

USA.gov is the U.S. government's official web portal to all federal, state and local government web resources and services.